Terminal Aerodrome Forecast
Issued by NWS

Home | Current Version | Previous Version | Graphics & Text | Print | Product List | Glossary On
Versions: 1 2 3 4 5 6 7 8 9 10 11 12 13 14 15 16 17 18 19 20
914
FTUS41 KCLE 061720
TAFFDY
TAF
KFDY 061720Z 0618/0718 22010KT 4SM HZ BKN015
     FM061900 23010KT P6SM SCT030 BKN250
     FM070200 22005KT P6SM SCT025 BKN060=

USA.gov is the U.S. government's official web portal to all federal, state and local government web resources and services.